sensor_id;sensor_type;location;lat;lon;timestamp;P1;durP1;ratioP1;P2;durP2;ratioP2
19919;SDS011;10122;50.074;19.920;2024-03-22T00:01:10;84.95;;;38.72;;
19919;SDS011;10122;50.074;19.920;2024-03-22T00:03:36;79.60;;;38.15;;
19919;SDS011;10122;50.074;19.920;2024-03-22T00:06:01;93.10;;;39.53;;
19919;SDS011;10122;50.074;19.920;2024-03-22T00:08:27;93.85;;;39.28;;
19919;SDS011;10122;50.074;19.920;2024-03-22T00:10:53;86.68;;;37.63;;
19919;SDS011;10122;50.074;19.920;2024-03-22T00:13:19;74.40;;;37.58;;
19919;SDS011;10122;50.074;19.920;2024-03-22T00:15:44;77.43;;;38.10;;
19919;SDS011;10122;50.074;19.920;2024-03-22T00:18:10;82.43;;;37.90;;
19919;SDS011;10122;50.074;19.920;2024-03-22T00:20:36;77.35;;;37.40;;
19919;SDS011;10122;50.074;19.920;2024-03-22T00:23:02;75.13;;;36.63;;
19919;SDS011;10122;50.074;19.920;2024-03-22T00:25:28;81.75;;;37.65;;
19919;SDS011;10122;50.074;19.920;2024-03-22T00:27:54;81.63;;;37.70;;
19919;SDS011;10122;50.074;19.920;2024-03-22T00:30:20;79.82;;;36.78;;
19919;SDS011;10122;50.074;19.920;2024-03-22T00:32:46;76.38;;;35.63;;
19919;SDS011;10122;50.074;19.920;2024-03-22T00:35:12;71.85;;;34.95;;
19919;SDS011;10122;50.074;19.920;2024-03-22T00:37:38;70.93;;;34.45;;
19919;SDS011;10122;50.074;19.920;2024-03-22T00:40:03;76.68;;;35.08;;
19919;SDS011;10122;50.074;19.920;2024-03-22T00:42:30;76.55;;;35.40;;
19919;SDS011;10122;50.074;19.920;2024-03-22T00:44:56;74.18;;;34.92;;
19919;SDS011;10122;50.074;19.920;2024-03-22T00:47:22;66.13;;;32.47;;
19919;SDS011;10122;50.074;19.920;2024-03-22T00:49:48;70.55;;;33.28;;
19919;SDS011;10122;50.074;19.920;2024-03-22T00:52:14;79.53;;;33.92;;
19919;SDS011;10122;50.074;19.920;2024-03-22T00:54:40;69.50;;;33.65;;
19919;SDS011;10122;50.074;19.920;2024-03-22T00:57:06;70.78;;;34.25;;
19919;SDS011;10122;50.074;19.920;2024-03-22T00:59:32;71.97;;;34.20;;
19919;SDS011;10122;50.074;19.920;2024-03-22T01:01:57;69.95;;;34.17;;
19919;SDS011;10122;50.074;19.920;2024-03-22T01:04:23;71.85;;;34.47;;
19919;SDS011;10122;50.074;19.920;2024-03-22T01:06:49;75.60;;;34.65;;
19919;SDS011;10122;50.074;19.920;2024-03-22T01:09:14;73.43;;;35.30;;
19919;SDS011;10122;50.074;19.920;2024-03-22T01:11:40;77.07;;;35.72;;
19919;SDS011;10122;50.074;19.920;2024-03-22T01:14:06;76.20;;;36.92;;
19919;SDS011;10122;50.074;19.920;2024-03-22T01:16:32;77.25;;;36.75;;
19919;SDS011;10122;50.074;19.920;2024-03-22T01:18:57;82.57;;;36.45;;
19919;SDS011;10122;50.074;19.920;2024-03-22T01:21:23;71.75;;;34.72;;
19919;SDS011;10122;50.074;19.920;2024-03-22T01:23:53;68.18;;;34.63;;
19919;SDS011;10122;50.074;19.920;2024-03-22T01:26:18;88.20;;;36.25;;
19919;SDS011;10122;50.074;19.920;2024-03-22T01:28:44;78.75;;;37.72;;
19919;SDS011;10122;50.074;19.920;2024-03-22T01:31:11;76.00;;;36.47;;
19919;SDS011;10122;50.074;19.920;2024-03-22T01:33:36;77.93;;;36.03;;
19919;SDS011;10122;50.074;19.920;2024-03-22T01:36:02;82.53;;;37.28;;
19919;SDS011;10122;50.074;19.920;2024-03-22T01:38:30;78.47;;;36.75;;
19919;SDS011;10122;50.074;19.920;2024-03-22T01:40:56;77.97;;;36.97;;
19919;SDS011;10122;50.074;19.920;2024-03-22T01:43:21;75.85;;;37.45;;
19919;SDS011;10122;50.074;19.920;2024-03-22T01:45:47;81.22;;;36.45;;
19919;SDS011;10122;50.074;19.920;2024-03-22T01:48:13;78.22;;;36.75;;
19919;SDS011;10122;50.074;19.920;2024-03-22T01:50:39;77.53;;;37.50;;
19919;SDS011;10122;50.074;19.920;2024-03-22T01:53:05;84.38;;;36.05;;
19919;SDS011;10122;50.074;19.920;2024-03-22T01:55:31;84.95;;;37.33;;
19919;SDS011;10122;50.074;19.920;2024-03-22T01:57:56;78.47;;;37.55;;
19919;SDS011;10122;50.074;19.920;2024-03-22T02:00:22;82.47;;;38.35;;
19919;SDS011;10122;50.074;19.920;2024-03-22T02:02:48;90.60;;;38.45;;
19919;SDS011;10122;50.074;19.920;2024-03-22T02:07:40;75.95;;;36.53;;
19919;SDS011;10122;50.074;19.920;2024-03-22T02:10:07;77.55;;;37.17;;
19919;SDS011;10122;50.074;19.920;2024-03-22T02:12:36;83.32;;;37.45;;
19919;SDS011;10122;50.074;19.920;2024-03-22T02:15:02;75.90;;;36.67;;
19919;SDS011;10122;50.074;19.920;2024-03-22T02:17:28;72.95;;;35.78;;
19919;SDS011;10122;50.074;19.920;2024-03-22T02:19:54;80.93;;;37.33;;
19919;SDS011;10122;50.074;19.920;2024-03-22T02:22:19;74.05;;;36.10;;
19919;SDS011;10122;50.074;19.920;2024-03-22T02:24:45;81.40;;;36.83;;
19919;SDS011;10122;50.074;19.920;2024-03-22T02:27:10;79.28;;;37.13;;
19919;SDS011;10122;50.074;19.920;2024-03-22T02:29:36;86.28;;;37.75;;
19919;SDS011;10122;50.074;19.920;2024-03-22T02:32:02;79.63;;;37.38;;
19919;SDS011;10122;50.074;19.920;2024-03-22T02:34:28;79.30;;;37.80;;
19919;SDS011;10122;50.074;19.920;2024-03-22T02:36:54;81.13;;;37.10;;
19919;SDS011;10122;50.074;19.920;2024-03-22T02:39:20;80.20;;;37.67;;
19919;SDS011;10122;50.074;19.920;2024-03-22T02:41:45;81.10;;;36.70;;
19919;SDS011;10122;50.074;19.920;2024-03-22T02:44:11;78.32;;;36.33;;
19919;SDS011;10122;50.074;19.920;2024-03-22T02:46:37;77.72;;;37.38;;
19919;SDS011;10122;50.074;19.920;2024-03-22T02:49:02;81.35;;;36.70;;
19919;SDS011;10122;50.074;19.920;2024-03-22T02:51:28;74.85;;;36.00;;
19919;SDS011;10122;50.074;19.920;2024-03-22T02:53:53;74.30;;;35.25;;
19919;SDS011;10122;50.074;19.920;2024-03-22T02:56:19;80.35;;;35.67;;
19919;SDS011;10122;50.074;19.920;2024-03-22T02:58:45;69.15;;;33.03;;
19919;SDS011;10122;50.074;19.920;2024-03-22T03:01:10;77.72;;;33.05;;
19919;SDS011;10122;50.074;19.920;2024-03-22T03:03:36;68.25;;;31.27;;
19919;SDS011;10122;50.074;19.920;2024-03-22T03:06:02;61.10;;;28.83;;
19919;SDS011;10122;50.074;19.920;2024-03-22T03:08:28;62.65;;;29.27;;
19919;SDS011;10122;50.074;19.920;2024-03-22T03:10:53;55.30;;;28.65;;
19919;SDS011;10122;50.074;19.920;2024-03-22T03:13:19;61.53;;;28.92;;
19919;SDS011;10122;50.074;19.920;2024-03-22T03:15:44;57.22;;;28.58;;
19919;SDS011;10122;50.074;19.920;2024-03-22T03:18:10;58.50;;;27.98;;
19919;SDS011;10122;50.074;19.920;2024-03-22T03:20:36;53.40;;;26.00;;
19919;SDS011;10122;50.074;19.920;2024-03-22T03:23:02;53.08;;;26.90;;
19919;SDS011;10122;50.074;19.920;2024-03-22T03:25:28;47.40;;;25.08;;
19919;SDS011;10122;50.074;19.920;2024-03-22T03:27:54;47.03;;;26.08;;
19919;SDS011;10122;50.074;19.920;2024-03-22T03:30:19;48.35;;;25.15;;
19919;SDS011;10122;50.074;19.920;2024-03-22T03:32:45;49.42;;;26.20;;
19919;SDS011;10122;50.074;19.920;2024-03-22T03:35:11;45.17;;;25.25;;
19919;SDS011;10122;50.074;19.920;2024-03-22T03:37:36;47.22;;;24.45;;
19919;SDS011;10122;50.074;19.920;2024-03-22T03:40:02;49.42;;;25.52;;
19919;SDS011;10122;50.074;19.920;2024-03-22T03:42:29;52.42;;;26.00;;
19919;SDS011;10122;50.074;19.920;2024-03-22T03:44:55;52.72;;;26.45;;
19919;SDS011;10122;50.074;19.920;2024-03-22T03:47:20;48.95;;;25.17;;
19919;SDS011;10122;50.074;19.920;2024-03-22T03:49:46;51.13;;;26.05;;
19919;SDS011;10122;50.074;19.920;2024-03-22T03:52:12;50.40;;;25.77;;
19919;SDS011;10122;50.074;19.920;2024-03-22T03:54:38;50.92;;;25.67;;
19919;SDS011;10122;50.074;19.920;2024-03-22T03:57:04;47.13;;;25.95;;
19919;SDS011;10122;50.074;19.920;2024-03-22T03:59:30;48.58;;;25.08;;
19919;SDS011;10122;50.074;19.920;2024-03-22T04:01:55;43.88;;;23.70;;
19919;SDS011;10122;50.074;19.920;2024-03-22T04:04:21;50.35;;;25.73;;
19919;SDS011;10122;50.074;19.920;2024-03-22T04:06:46;49.83;;;24.98;;
19919;SDS011;10122;50.074;19.920;2024-03-22T04:09:12;52.72;;;26.80;;
19919;SDS011;10122;50.074;19.920;2024-03-22T04:11:38;49.42;;;25.98;;
19919;SDS011;10122;50.074;19.920;2024-03-22T04:14:06;56.85;;;27.00;;
19919;SDS011;10122;50.074;19.920;2024-03-22T04:16:32;49.65;;;27.17;;
19919;SDS011;10122;50.074;19.920;2024-03-22T04:18:58;53.70;;;27.45;;
19919;SDS011;10122;50.074;19.920;2024-03-22T04:21:23;53.72;;;26.73;;
19919;SDS011;10122;50.074;19.920;2024-03-22T04:23:49;48.13;;;27.00;;
19919;SDS011;10122;50.074;19.920;2024-03-22T04:26:14;47.80;;;25.77;;
19919;SDS011;10122;50.074;19.920;2024-03-22T04:28:40;52.45;;;27.10;;
19919;SDS011;10122;50.074;19.920;2024-03-22T04:31:07;51.75;;;27.13;;
19919;SDS011;10122;50.074;19.920;2024-03-22T04:33:37;53.80;;;26.90;;
19919;SDS011;10122;50.074;19.920;2024-03-22T04:36:03;49.67;;;26.17;;
19919;SDS011;10122;50.074;19.920;2024-03-22T04:38:29;51.58;;;26.42;;
19919;SDS011;10122;50.074;19.920;2024-03-22T04:40:56;48.17;;;26.70;;
19919;SDS011;10122;50.074;19.920;2024-03-22T04:43:25;57.05;;;26.60;;
19919;SDS011;10122;50.074;19.920;2024-03-22T04:45:51;50.80;;;27.00;;
19919;SDS011;10122;50.074;19.920;2024-03-22T04:48:18;54.33;;;25.33;;
19919;SDS011;10122;50.074;19.920;2024-03-22T04:50:48;46.10;;;26.33;;
19919;SDS011;10122;50.074;19.920;2024-03-22T04:53:20;48.83;;;24.65;;
19919;SDS011;10122;50.074;19.920;2024-03-22T04:55:46;49.83;;;26.13;;
19919;SDS011;10122;50.074;19.920;2024-03-22T04:58:16;51.30;;;26.50;;
19919;SDS011;10122;50.074;19.920;2024-03-22T05:00:43;51.92;;;26.55;;
19919;SDS011;10122;50.074;19.920;2024-03-22T05:03:09;42.70;;;25.45;;
19919;SDS011;10122;50.074;19.920;2024-03-22T05:05:35;45.55;;;24.48;;
19919;SDS011;10122;50.074;19.920;2024-03-22T05:08:02;49.83;;;25.75;;
19919;SDS011;10122;50.074;19.920;2024-03-22T05:10:29;45.33;;;25.52;;
19919;SDS011;10122;50.074;19.920;2024-03-22T05:12:55;43.75;;;25.40;;
19919;SDS011;10122;50.074;19.920;2024-03-22T05:15:21;43.67;;;23.58;;
19919;SDS011;10122;50.074;19.920;2024-03-22T05:17:48;43.30;;;24.20;;
19919;SDS011;10122;50.074;19.920;2024-03-22T05:20:14;48.13;;;25.00;;
19919;SDS011;10122;50.074;19.920;2024-03-22T05:22:41;44.90;;;23.33;;
19919;SDS011;10122;50.074;19.920;2024-03-22T05:25:07;42.00;;;24.10;;
19919;SDS011;10122;50.074;19.920;2024-03-22T05:27:33;45.88;;;24.83;;
19919;SDS011;10122;50.074;19.920;2024-03-22T05:29:59;40.78;;;22.95;;
19919;SDS011;10122;50.074;19.920;2024-03-22T05:32:25;42.00;;;23.27;;
19919;SDS011;10122;50.074;19.920;2024-03-22T05:34:51;41.10;;;22.92;;
19919;SDS011;10122;50.074;19.920;2024-03-22T05:37:18;43.38;;;22.48;;
19919;SDS011;10122;50.074;19.920;2024-03-22T05:39:43;43.72;;;23.50;;
19919;SDS011;10122;50.074;19.920;2024-03-22T05:42:09;42.17;;;23.42;;
19919;SDS011;10122;50.074;19.920;2024-03-22T05:44:35;46.78;;;25.17;;
19919;SDS011;10122;50.074;19.920;2024-03-22T05:47:00;46.78;;;24.33;;
19919;SDS011;10122;50.074;19.920;2024-03-22T05:49:26;50.00;;;25.02;;
19919;SDS011;10122;50.074;19.920;2024-03-22T05:51:52;44.88;;;24.63;;
19919;SDS011;10122;50.074;19.920;2024-03-22T05:54:18;44.63;;;24.20;;
19919;SDS011;10122;50.074;19.920;2024-03-22T05:56:45;48.45;;;26.13;;
19919;SDS011;10122;50.074;19.920;2024-03-22T05:59:10;51.65;;;27.23;;
19919;SDS011;10122;50.074;19.920;2024-03-22T06:01:36;48.85;;;25.42;;
19919;SDS011;10122;50.074;19.920;2024-03-22T06:04:03;47.28;;;26.30;;
19919;SDS011;10122;50.074;19.920;2024-03-22T06:06:30;51.47;;;26.13;;
19919;SDS011;10122;50.074;19.920;2024-03-22T06:08:57;48.53;;;25.55;;
19919;SDS011;10122;50.074;19.920;2024-03-22T06:11:25;50.45;;;26.63;;
19919;SDS011;10122;50.074;19.920;2024-03-22T06:13:51;47.53;;;25.83;;
19919;SDS011;10122;50.074;19.920;2024-03-22T06:16:16;47.90;;;26.73;;
19919;SDS011;10122;50.074;19.920;2024-03-22T06:18:42;44.13;;;25.38;;
19919;SDS011;10122;50.074;19.920;2024-03-22T06:21:08;48.83;;;25.83;;
19919;SDS011;10122;50.074;19.920;2024-03-22T06:23:33;50.30;;;27.17;;
19919;SDS011;10122;50.074;19.920;2024-03-22T06:26:00;49.08;;;26.55;;
19919;SDS011;10122;50.074;19.920;2024-03-22T06:28:27;44.78;;;25.73;;
19919;SDS011;10122;50.074;19.920;2024-03-22T06:30:53;46.40;;;24.42;;
19919;SDS011;10122;50.074;19.920;2024-03-22T06:33:20;46.08;;;24.98;;
19919;SDS011;10122;50.074;19.920;2024-03-22T06:35:46;45.58;;;25.58;;
19919;SDS011;10122;50.074;19.920;2024-03-22T06:38:12;45.70;;;25.75;;
19919;SDS011;10122;50.074;19.920;2024-03-22T06:40:38;48.67;;;24.70;;
19919;SDS011;10122;50.074;19.920;2024-03-22T06:43:04;43.20;;;24.27;;
19919;SDS011;10122;50.074;19.920;2024-03-22T06:45:29;42.75;;;23.52;;
19919;SDS011;10122;50.074;19.920;2024-03-22T06:47:55;48.38;;;24.67;;
19919;SDS011;10122;50.074;19.920;2024-03-22T06:50:21;45.90;;;24.10;;
19919;SDS011;10122;50.074;19.920;2024-03-22T06:52:52;39.05;;;22.35;;
19919;SDS011;10122;50.074;19.920;2024-03-22T06:55:21;47.97;;;25.30;;
19919;SDS011;10122;50.074;19.920;2024-03-22T06:57:48;40.53;;;24.85;;
19919;SDS011;10122;50.074;19.920;2024-03-22T07:00:14;45.00;;;24.55;;
19919;SDS011;10122;50.074;19.920;2024-03-22T07:02:41;42.30;;;23.02;;
19919;SDS011;10122;50.074;19.920;2024-03-22T07:05:07;46.75;;;24.20;;
19919;SDS011;10122;50.074;19.920;2024-03-22T07:07:33;45.55;;;24.20;;
19919;SDS011;10122;50.074;19.920;2024-03-22T07:10:00;42.70;;;24.42;;
19919;SDS011;10122;50.074;19.920;2024-03-22T07:12:25;38.47;;;20.98;;
19919;SDS011;10122;50.074;19.920;2024-03-22T07:14:51;53.88;;;26.23;;
19919;SDS011;10122;50.074;19.920;2024-03-22T07:17:17;51.90;;;27.23;;
19919;SDS011;10122;50.074;19.920;2024-03-22T07:19:44;49.60;;;25.67;;
19919;SDS011;10122;50.074;19.920;2024-03-22T07:22:10;49.00;;;25.33;;
19919;SDS011;10122;50.074;19.920;2024-03-22T07:24:35;46.95;;;25.02;;
19919;SDS011;10122;50.074;19.920;2024-03-22T07:27:01;41.13;;;22.83;;
19919;SDS011;10122;50.074;19.920;2024-03-22T07:29:27;48.83;;;24.58;;
19919;SDS011;10122;50.074;19.920;2024-03-22T07:31:53;51.63;;;26.00;;
19919;SDS011;10122;50.074;19.920;2024-03-22T07:34:18;50.47;;;25.35;;
19919;SDS011;10122;50.074;19.920;2024-03-22T07:36:44;49.03;;;26.02;;
19919;SDS011;10122;50.074;19.920;2024-03-22T07:39:10;44.72;;;24.25;;
19919;SDS011;10122;50.074;19.920;2024-03-22T07:41:35;48.05;;;25.45;;
19919;SDS011;10122;50.074;19.920;2024-03-22T07:44:01;45.47;;;25.10;;
19919;SDS011;10122;50.074;19.920;2024-03-22T07:46:27;44.22;;;23.30;;
19919;SDS011;10122;50.074;19.920;2024-03-22T07:48:53;30.02;;;17.92;;
19919;SDS011;10122;50.074;19.920;2024-03-22T07:51:19;46.05;;;23.45;;
19919;SDS011;10122;50.074;19.920;2024-03-22T07:53:45;36.20;;;19.73;;
19919;SDS011;10122;50.074;19.920;2024-03-22T07:56:11;32.25;;;19.27;;
19919;SDS011;10122;50.074;19.920;2024-03-22T07:58:38;37.35;;;22.73;;
19919;SDS011;10122;50.074;19.920;2024-03-22T08:01:04;40.85;;;22.98;;
19919;SDS011;10122;50.074;19.920;2024-03-22T08:03:30;37.92;;;22.23;;
19919;SDS011;10122;50.074;19.920;2024-03-22T08:05:55;43.67;;;23.67;;
19919;SDS011;10122;50.074;19.920;2024-03-22T08:08:21;35.38;;;18.30;;
19919;SDS011;10122;50.074;19.920;2024-03-22T08:10:47;39.22;;;22.73;;
19919;SDS011;10122;50.074;19.920;2024-03-22T08:13:13;40.67;;;22.77;;
19919;SDS011;10122;50.074;19.920;2024-03-22T08:15:39;33.20;;;19.23;;
19919;SDS011;10122;50.074;19.920;2024-03-22T08:18:05;47.13;;;24.08;;
19919;SDS011;10122;50.074;19.920;2024-03-22T08:20:31;38.85;;;22.42;;
19919;SDS011;10122;50.074;19.920;2024-03-22T08:22:58;40.55;;;22.85;;
19919;SDS011;10122;50.074;19.920;2024-03-22T08:25:26;39.10;;;23.17;;
19919;SDS011;10122;50.074;19.920;2024-03-22T08:27:52;40.33;;;23.20;;
19919;SDS011;10122;50.074;19.920;2024-03-22T08:30:20;45.65;;;23.75;;
19919;SDS011;10122;50.074;19.920;2024-03-22T08:32:46;41.97;;;24.17;;
19919;SDS011;10122;50.074;19.920;2024-03-22T08:35:12;43.10;;;24.17;;
19919;SDS011;10122;50.074;19.920;2024-03-22T08:37:37;41.05;;;23.52;;
19919;SDS011;10122;50.074;19.920;2024-03-22T08:40:03;41.90;;;24.55;;
19919;SDS011;10122;50.074;19.920;2024-03-22T08:42:29;44.35;;;24.65;;
19919;SDS011;10122;50.074;19.920;2024-03-22T08:44:55;42.03;;;23.60;;
19919;SDS011;10122;50.074;19.920;2024-03-22T08:47:21;46.20;;;24.25;;
19919;SDS011;10122;50.074;19.920;2024-03-22T08:49:46;41.08;;;22.67;;
19919;SDS011;10122;50.074;19.920;2024-03-22T08:52:12;40.13;;;23.08;;
19919;SDS011;10122;50.074;19.920;2024-03-22T08:54:38;40.60;;;22.00;;
19919;SDS011;10122;50.074;19.920;2024-03-22T08:57:03;39.15;;;21.05;;
19919;SDS011;10122;50.074;19.920;2024-03-22T08:59:29;34.78;;;20.33;;
19919;SDS011;10122;50.074;19.920;2024-03-22T09:01:55;37.47;;;20.42;;
19919;SDS011;10122;50.074;19.920;2024-03-22T09:04:20;28.75;;;17.70;;
19919;SDS011;10122;50.074;19.920;2024-03-22T09:06:46;35.92;;;20.77;;
19919;SDS011;10122;50.074;19.920;2024-03-22T09:09:12;34.05;;;19.08;;
19919;SDS011;10122;50.074;19.920;2024-03-22T09:11:38;34.00;;;18.98;;
19919;SDS011;10122;50.074;19.920;2024-03-22T09:14:03;32.97;;;19.23;;
19919;SDS011;10122;50.074;19.920;2024-03-22T09:16:29;35.60;;;19.35;;
19919;SDS011;10122;50.074;19.920;2024-03-22T09:18:55;29.20;;;16.98;;
19919;SDS011;10122;50.074;19.920;2024-03-22T09:21:21;30.42;;;17.63;;
19919;SDS011;10122;50.074;19.920;2024-03-22T09:23:47;25.95;;;15.98;;
19919;SDS011;10122;50.074;19.920;2024-03-22T09:26:12;30.58;;;17.38;;
19919;SDS011;10122;50.074;19.920;2024-03-22T09:28:39;28.65;;;17.02;;
19919;SDS011;10122;50.074;19.920;2024-03-22T09:31:05;25.83;;;15.55;;
19919;SDS011;10122;50.074;19.920;2024-03-22T09:33:35;24.13;;;14.77;;
19919;SDS011;10122;50.074;19.920;2024-03-22T09:36:01;22.80;;;13.70;;
19919;SDS011;10122;50.074;19.920;2024-03-22T09:38:27;26.63;;;16.08;;
19919;SDS011;10122;50.074;19.920;2024-03-22T09:40:53;24.27;;;15.05;;
19919;SDS011;10122;50.074;19.920;2024-03-22T09:43:19;23.27;;;13.98;;
19919;SDS011;10122;50.074;19.920;2024-03-22T09:45:46;24.50;;;14.48;;
19919;SDS011;10122;50.074;19.920;2024-03-22T09:48:18;23.75;;;13.25;;
19919;SDS011;10122;50.074;19.920;2024-03-22T09:50:47;23.73;;;14.98;;
19919;SDS011;10122;50.074;19.920;2024-03-22T09:53:17;30.65;;;14.75;;
19919;SDS011;10122;50.074;19.920;2024-03-22T09:55:48;26.13;;;15.70;;
19919;SDS011;10122;50.074;19.920;2024-03-22T09:58:14;20.83;;;13.93;;
19919;SDS011;10122;50.074;19.920;2024-03-22T10:00:43;24.83;;;15.20;;
19919;SDS011;10122;50.074;19.920;2024-03-22T10:03:18;27.55;;;13.52;;
19919;SDS011;10122;50.074;19.920;2024-03-22T10:05:43;25.75;;;15.05;;
19919;SDS011;10122;50.074;19.920;2024-03-22T10:08:09;25.55;;;15.02;;
19919;SDS011;10122;50.074;19.920;2024-03-22T10:10:36;21.35;;;13.65;;
19919;SDS011;10122;50.074;19.920;2024-03-22T10:13:03;22.80;;;13.20;;
19919;SDS011;10122;50.074;19.920;2024-03-22T10:15:29;20.13;;;12.85;;
19919;SDS011;10122;50.074;19.920;2024-03-22T10:17:56;22.70;;;12.80;;
19919;SDS011;10122;50.074;19.920;2024-03-22T10:20:22;22.50;;;13.55;;
19919;SDS011;10122;50.074;19.920;2024-03-22T10:22:49;20.95;;;13.05;;
19919;SDS011;10122;50.074;19.920;2024-03-22T10:25:20;17.92;;;12.45;;
19919;SDS011;10122;50.074;19.920;2024-03-22T10:27:47;22.77;;;13.80;;
19919;SDS011;10122;50.074;19.920;2024-03-22T10:30:13;25.38;;;13.73;;
19919;SDS011;10122;50.074;19.920;2024-03-22T10:32:41;23.42;;;14.18;;
19919;SDS011;10122;50.074;19.920;2024-03-22T10:35:07;22.90;;;13.52;;
19919;SDS011;10122;50.074;19.920;2024-03-22T10:37:37;20.05;;;12.32;;
19919;SDS011;10122;50.074;19.920;2024-03-22T10:40:03;23.20;;;14.30;;
19919;SDS011;10122;50.074;19.920;2024-03-22T10:42:35;22.02;;;14.30;;
19919;SDS011;10122;50.074;19.920;2024-03-22T10:45:02;17.70;;;12.93;;
19919;SDS011;10122;50.074;19.920;2024-03-22T10:47:29;19.90;;;13.48;;
19919;SDS011;10122;50.074;19.920;2024-03-22T10:50:17;24.90;;;14.95;;
19919;SDS011;10122;50.074;19.920;2024-03-22T10:52:59;21.70;;;13.95;;
19919;SDS011;10122;50.074;19.920;2024-03-22T10:55:33;18.67;;;12.95;;
19919;SDS011;10122;50.074;19.920;2024-03-22T10:58:00;21.83;;;14.90;;
19919;SDS011;10122;50.074;19.920;2024-03-22T11:02:56;24.40;;;15.23;;
19919;SDS011;10122;50.074;19.920;2024-03-22T11:05:21;23.05;;;15.00;;
19919;SDS011;10122;50.074;19.920;2024-03-22T11:07:47;26.10;;;15.85;;
19919;SDS011;10122;50.074;19.920;2024-03-22T11:10:13;23.85;;;13.82;;
19919;SDS011;10122;50.074;19.920;2024-03-22T11:12:39;27.13;;;16.77;;
19919;SDS011;10122;50.074;19.920;2024-03-22T11:15:06;27.20;;;16.73;;
19919;SDS011;10122;50.074;19.920;2024-03-22T11:17:32;25.70;;;17.73;;
19919;SDS011;10122;50.074;19.920;2024-03-22T11:19:58;25.15;;;15.68;;
19919;SDS011;10122;50.074;19.920;2024-03-22T11:22:25;26.00;;;17.67;;
19919;SDS011;10122;50.074;19.920;2024-03-22T11:24:52;27.25;;;18.13;;
19919;SDS011;10122;50.074;19.920;2024-03-22T11:27:17;30.40;;;19.08;;
19919;SDS011;10122;50.074;19.920;2024-03-22T11:29:44;31.50;;;19.38;;
19919;SDS011;10122;50.074;19.920;2024-03-22T11:32:11;30.65;;;18.90;;
19919;SDS011;10122;50.074;19.920;2024-03-22T11:34:38;26.48;;;17.77;;
19919;SDS011;10122;50.074;19.920;2024-03-22T11:37:07;26.67;;;18.63;;
19919;SDS011;10122;50.074;19.920;2024-03-22T11:39:35;36.72;;;20.20;;
19919;SDS011;10122;50.074;19.920;2024-03-22T11:42:03;27.30;;;17.63;;
19919;SDS011;10122;50.074;19.920;2024-03-22T11:44:30;29.83;;;17.73;;
19919;SDS011;10122;50.074;19.920;2024-03-22T11:46:57;32.75;;;16.90;;
19919;SDS011;10122;50.074;19.920;2024-03-22T11:49:23;21.20;;;16.20;;
19919;SDS011;10122;50.074;19.920;2024-03-22T11:51:51;26.80;;;17.60;;
19919;SDS011;10122;50.074;19.920;2024-03-22T11:54:20;25.77;;;18.08;;
19919;SDS011;10122;50.074;19.920;2024-03-22T11:56:46;24.00;;;16.23;;
19919;SDS011;10122;50.074;19.920;2024-03-22T11:59:11;27.13;;;17.55;;
19919;SDS011;10122;50.074;19.920;2024-03-22T12:01:37;22.60;;;16.10;;
19919;SDS011;10122;50.074;19.920;2024-03-22T12:04:03;26.48;;;16.50;;
19919;SDS011;10122;50.074;19.920;2024-03-22T12:06:29;26.08;;;17.95;;
19919;SDS011;10122;50.074;19.920;2024-03-22T12:08:55;24.50;;;17.58;;
19919;SDS011;10122;50.074;19.920;2024-03-22T12:11:20;29.45;;;16.98;;
19919;SDS011;10122;50.074;19.920;2024-03-22T12:13:46;26.13;;;17.88;;
19919;SDS011;10122;50.074;19.920;2024-03-22T12:16:12;22.30;;;15.88;;
19919;SDS011;10122;50.074;19.920;2024-03-22T12:18:37;34.08;;;19.33;;
19919;SDS011;10122;50.074;19.920;2024-03-22T12:21:03;20.60;;;15.07;;
19919;SDS011;10122;50.074;19.920;2024-03-22T12:23:29;23.58;;;15.45;;
19919;SDS011;10122;50.074;19.920;2024-03-22T12:25:54;28.30;;;17.95;;
19919;SDS011;10122;50.074;19.920;2024-03-22T12:28:20;26.38;;;16.88;;
19919;SDS011;10122;50.074;19.920;2024-03-22T12:30:47;29.27;;;18.77;;
19919;SDS011;10122;50.074;19.920;2024-03-22T12:33:13;27.77;;;16.83;;
19919;SDS011;10122;50.074;19.920;2024-03-22T12:35:41;27.00;;;16.73;;
19919;SDS011;10122;50.074;19.920;2024-03-22T12:38:08;23.17;;;15.65;;
19919;SDS011;10122;50.074;19.920;2024-03-22T12:40:35;26.33;;;16.70;;
19919;SDS011;10122;50.074;19.920;2024-03-22T12:43:02;25.50;;;16.90;;
19919;SDS011;10122;50.074;19.920;2024-03-22T12:45:28;27.67;;;17.45;;
19919;SDS011;10122;50.074;19.920;2024-03-22T12:47:54;24.50;;;16.60;;
19919;SDS011;10122;50.074;19.920;2024-03-22T12:50:20;24.50;;;16.05;;
19919;SDS011;10122;50.074;19.920;2024-03-22T12:52:46;28.02;;;16.55;;
19919;SDS011;10122;50.074;19.920;2024-03-22T12:55:12;25.75;;;16.25;;
19919;SDS011;10122;50.074;19.920;2024-03-22T12:57:38;25.42;;;16.50;;
19919;SDS011;10122;50.074;19.920;2024-03-22T13:00:05;26.00;;;17.27;;
19919;SDS011;10122;50.074;19.920;2024-03-22T13:02:38;26.58;;;17.63;;
19919;SDS011;10122;50.074;19.920;2024-03-22T13:05:06;24.92;;;15.90;;
19919;SDS011;10122;50.074;19.920;2024-03-22T13:07:33;24.58;;;16.27;;
19919;SDS011;10122;50.074;19.920;2024-03-22T13:09:58;29.17;;;17.90;;
19919;SDS011;10122;50.074;19.920;2024-03-22T13:12:25;25.55;;;17.13;;
19919;SDS011;10122;50.074;19.920;2024-03-22T13:14:52;26.00;;;17.48;;
19919;SDS011;10122;50.074;19.920;2024-03-22T13:17:18;26.58;;;17.92;;
19919;SDS011;10122;50.074;19.920;2024-03-22T13:19:43;25.02;;;15.15;;
19919;SDS011;10122;50.074;19.920;2024-03-22T13:22:09;27.88;;;17.70;;
19919;SDS011;10122;50.074;19.920;2024-03-22T13:24:35;28.08;;;19.23;;
19919;SDS011;10122;50.074;19.920;2024-03-22T13:27:01;23.67;;;15.20;;
19919;SDS011;10122;50.074;19.920;2024-03-22T13:29:27;33.33;;;18.95;;
19919;SDS011;10122;50.074;19.920;2024-03-22T13:31:53;32.17;;;19.52;;
19919;SDS011;10122;50.074;19.920;2024-03-22T13:37:03;27.45;;;17.42;;
19919;SDS011;10122;50.074;19.920;2024-03-22T13:39:29;24.17;;;15.98;;
19919;SDS011;10122;50.074;19.920;2024-03-22T13:41:55;26.90;;;18.30;;
19919;SDS011;10122;50.074;19.920;2024-03-22T13:44:21;26.40;;;18.42;;
19919;SDS011;10122;50.074;19.920;2024-03-22T13:46:49;27.98;;;19.27;;
19919;SDS011;10122;50.074;19.920;2024-03-22T13:49:16;27.50;;;19.65;;
19919;SDS011;10122;50.074;19.920;2024-03-22T13:51:43;26.88;;;17.63;;
19919;SDS011;10122;50.074;19.920;2024-03-22T13:54:09;30.92;;;19.30;;
19919;SDS011;10122;50.074;19.920;2024-03-22T13:56:36;25.20;;;17.00;;
19919;SDS011;10122;50.074;19.920;2024-03-22T13:59:03;26.88;;;18.17;;
19919;SDS011;10122;50.074;19.920;2024-03-22T14:01:36;25.20;;;17.98;;
19919;SDS011;10122;50.074;19.920;2024-03-22T14:04:05;26.30;;;18.80;;
19919;SDS011;10122;50.074;19.920;2024-03-22T14:06:31;24.85;;;16.63;;
19919;SDS011;10122;50.074;19.920;2024-03-22T14:08:57;28.33;;;18.38;;
19919;SDS011;10122;50.074;19.920;2024-03-22T14:11:27;26.50;;;17.50;;